Terminal Aerodrome Forecast
Issued by NWS Jackson, MS

Home | Current Version | Previous Version | Text Only | Print | Product List | Glossary On
Versions: 1 2 3 4 5 6 7 8 9 10 11 12 13 14 15 16
354
FTUS44 KJAN 190559
TAFGWO
TAF
KGWO 190559Z 1906/2006 14010KT 6SM BR VCSH FEW008 SCT035 OVC100
     FM191000 17012G20KT 3SM TSRA BR SCT008 BKN015CB OVC090
     FM191400 19012G20KT 5SM +TSRA SCT015CB OVC050
     FM192200 21008KT 4SM BR SCT015 BKN100=

USA.gov is the U.S. government's official web portal to all federal, state and local government web resources and services.